Hackettstown, NJ

12:08 AM EDT on August 29, 2014 (GMT -0400)
Panther Valley | Change Station
CLOSE
Current Station
Personal Weather Station
Location: Allamuchy, NJ
Elevation: 910 ft
Nearby Weather Stations

Elev 910 ft 40.90 °N, 74.85 °W | Updated 9 seconds ago

Clear
Clear
58.7 °F
Feels Like 58.7 °F
N
0.0
Wind Variable Wind from ENE
Gusts 0.0 mph

Today
High -- | Low -- °F
--% Chance of Precip.
Yesterday
High -- | Low -- °F
Precip. -- in
6:23 AM 7:36 PM
Waxing Crescent, 11% visible
Pressure 30.06 in
Visibility 10.0 miles
Clouds Clear
Dew Point 52 °F
Humidity 80%
Rainfall 0.00 in
Snow Depth Not available.
UV 0 out of 12
Pollen 9.70 out of 12
Air Quality Not available.
Flu Activity Not available.
METAR KSMQ 290353Z AUTO 00000KT 10SM CLR 16/09 A3007 RMK AO2 SLP180 T01560094 PWINO $

More Conditions Fewer Conditions

Pressure 30.06 in
Visibility 10.0 miles
Clouds Clear
Dew Point 52 °F
Humidity 80%
Rainfall 0.00 in
Snow Depth Not available.
UV 0 out of 12
Pollen 9.70 out of 12
Air Quality Not available.
Flu Activity Not available.
METAR KSMQ 290353Z AUTO 00000KT 10SM CLR 16/09 A3007 RMK AO2 SLP180 T01560094 PWINO $

More Conditions Fewer Conditions

10-Day Weather Forecast

Almanac

Astronomy

Aug. 29, 2014 Rise Set
Actual Time 6:23 AM EDT 7:36 PM EDT
Civil Twilight 5:54 AM EDT 8:04 PM EDT
Nautical Twilight 5:20 AM EDT 8:38 PM EDT
Astronomical Twilight 4:45 AM EDT 9:14 PM EDT
Moon 10:12 AM EDT 9:30 PM EDT
Length of Visible Light 14h 09m
Length of Day
13h 13m
Tomorrow will be 2m 35s shorter.
Waxing Crescent, 11% of the Moon is Illuminated
Today
Waxing Crescent
Sep 2
First Quarter
Sep 8
Full
Sep 15
Last Quarter
Sep 24
New

Yesterday's Extremes

State Highs State Lows

Community

WunderPhotos

Upload Photos

1,748,183 photos uploaded!

Nearby

Snow Depth

Station Depth Elevation
No new snow has been reported.

Earthquake Activity

City Distance Mag. Time & Date
No recent earthquake activity has been reported nearby.
Minimum magnitude displayed is 2.5.

Coastal Water Temperatures

Place Temperature
No Stations Reporting

Nearby Weather Stations